OIIK 
Qazvin Airport
Qazvin, Iran 
ICAOStatus
OIIKOperational
LatitudeLongitude
36° 14' 24" N50° 2' 49" E
36.24010150.047100
Local Time (DST+5)UTC (GMT+4)
04-20-2014 03:17 pm04-20-2014 10:47
Sunrise-SunsetLocalUTC
Begin Civil Twilight06:01 am01:31
Sunrise06:28 am01:58
Sunset07:49 pm15:19
End Civil Twilight08:15 pm15:45

Current Weather

METARObservedFlight Conditions

OIIK 201000Z VRB02KT 9999 FEW035 BKN180 24/04 Q1018

Sun, Apr 20, 2014 @ 10:00 UTC(Z)

(47 Minutes ago)

VFR

(Visual Flight Rules)

WindVisibilityCloudsConditions
Varies at 2 knots (4 kph)
10 km or more
  • Few at 3,500' AGL
  • Broken at 18,000' AGL
  • No significant weather
TemperaturesReadingsPrecipitation
Current Temp24°C (75°F)
Dewpoint4°C (39°F)
Humidity27%
Altimeter30.06"Hg
Sea Level Pressure1018mb
Field Elevation4192.91'
None Recorded

Additional weather within a 92.6km radius of OIIK

Location METAR
OIIP

87km S (126°)

47 minutes ago
VFR VFR    MVFR MVFR    IFR IFR    LIFR LIFR    Unknown Unknown

Previous 24 hour Weather Graphs

  Loading...

CheckWX.com is intended as a tool to help pilots better visualize weather data.   It is not intended as a substitute for an official weather briefing obtained from a Flight Service Station.
CheckWX.com does not meet the FAA requirements for an official pre-flight weather briefing.   Therefore, it's important that pilots still call and obtain an official FSS pre-flight weather briefing.